Time;durP1;ratioP1;P1;durP2;ratioP2;P2;SDS_P1;SDS_P2;PMS_P1;PMS_P2;Temp;Humidity;BMP_temperature;BMP_pressure;BME280_temperature;BME280_humidity;BME280_pressure;Samples;Min_cycle;Max_cycle;Signal;HPM_P1;HPM_P2
2021/09/26 00:02:13;;;;;;;5.77;4.23;;;;;;;15.29;83.23;100398.38;1718203;82;21102;-73
2021/09/26 00:04:40;;;;;;;6.43;3.70;;;;;;;15.27;83.29;100398.69;1719592;82;21067;-73
2021/09/26 00:07:07;;;;;;;5.97;3.77;;;;;;;15.28;83.32;100402.17;1706840;84;21508;-72
2021/09/26 00:09:34;;;;;;;5.37;3.80;;;;;;;15.27;83.38;100401.89;1731819;81;21063;-72
2021/09/26 00:12:01;;;;;;;5.20;3.93;;;;;;;15.24;83.46;100403.30;1707183;84;21104;-72
2021/09/26 00:14:28;;;;;;;7.07;4.13;;;;;;;15.22;83.49;100402.23;1709276;82;21056;-72
2021/09/26 00:16:58;;;;;;;6.07;3.83;;;;;;;15.19;83.54;100404.16;1737358;82;21012;-72
2021/09/26 00:19:26;;;;;;;5.93;4.10;;;;;;;15.18;83.53;100406.60;1743095;82;22167;-73
2021/09/26 00:21:54;;;;;;;5.07;3.60;;;;;;;15.17;83.53;100402.32;1742496;80;21479;-73
2021/09/26 00:24:21;;;;;;;6.57;4.30;;;;;;;15.16;83.59;100408.77;1739704;80;21083;-73
2021/09/26 00:26:49;;;;;;;5.33;3.57;;;;;;;15.15;83.62;100417.15;1739206;82;21048;-72
2021/09/26 00:29:16;;;;;;;5.97;3.90;;;;;;;15.14;83.69;100412.87;1708689;82;21043;-73
2021/09/26 00:31:46;;;;;;;6.07;4.17;;;;;;;15.12;83.75;100405.07;1723192;82;21339;-74
2021/09/26 00:34:14;;;;;;;5.87;4.30;;;;;;;15.06;83.62;100407.58;1742846;82;21518;-73
2021/09/26 00:36:45;;;;;;;5.33;4.00;;;;;;;15.06;83.62;100407.58;1661371;83;21067;-72
2021/09/26 00:39:14;;;;;;;6.05;4.40;;;;;;;15.03;83.90;100409.50;1713811;82;21555;-72
2021/09/26 00:41:42;;;;;;;5.97;4.10;;;;;;;14.95;84.07;100410.95;1731050;82;21035;-73
2021/09/26 00:44:14;;;;;;;6.00;4.10;;;;;;;14.89;84.19;100416.14;1741040;82;21159;-73
2021/09/26 00:46:43;;;;;;;6.33;4.23;;;;;;;14.84;84.27;100420.25;1737333;82;21559;-73
2021/09/26 00:49:17;;;;;;;6.53;4.17;;;;;;;14.75;84.62;100427.36;1742269;81;21035;-72
2021/09/26 00:51:50;;;;;;;5.93;4.33;;;;;;;14.75;84.62;100427.36;1727802;82;21525;-72
2021/09/26 00:54:20;;;;;;;7.43;4.40;;;;;;;14.69;84.88;100422.58;1653819;84;21829;-73
2021/09/26 00:56:49;;;;;;;7.33;4.10;;;;;;;14.67;84.93;100423.94;1713536;82;21801;-75
2021/09/26 00:59:18;;;;;;;6.70;4.90;;;;;;;14.61;85.07;100439.87;1737101;82;21672;-74
2021/09/26 01:01:48;;;;;;;8.03;4.63;;;;;;;14.57;85.18;100434.27;1736951;82;21688;-72
2021/09/26 01:04:18;;;;;;;8.17;4.83;;;;;;;14.54;85.22;100432.98;1744087;81;21659;-73
2021/09/26 01:07:00;;;;;;;7.43;4.07;;;;;;;14.55;85.26;100432.43;1745930;82;21733;-73
2021/09/26 01:09:45;;;;;;;6.70;4.50;;;;;;;14.57;85.29;100425.41;1743476;82;21711;-73
2021/09/26 01:12:26;;;;;;;6.47;4.53;;;;;;;14.57;85.29;100432.92;1744750;81;21667;-73
2021/09/26 01:15:20;;;;;;;7.40;4.57;;;;;;;14.59;85.30;100441.52;1747968;80;21761;-71
2021/09/26 01:18:07;;;;;;;8.20;4.73;;;;;;;14.60;85.32;100440.97;1745289;82;21078;-72
2021/09/26 01:21:21;;;;;;;7.97;4.43;;;;;;;14.60;85.42;100441.77;1744754;81;21614;-74
2021/09/26 01:24:30;;;;;;;7.33;4.90;;;;;;;14.61;85.52;100441.21;1726903;82;21774;-74
2021/09/26 01:27:43;;;;;;;6.33;4.60;;;;;;;14.60;85.57;100447.14;1733292;82;21703;-72
2021/09/26 01:30:58;;;;;;;7.55;4.87;;;;;;;14.59;85.60;100448.23;1742827;82;21777;-72
2021/09/26 01:34:11;;;;;;;8.40;4.97;;;;;;;14.59;85.70;100452.27;1726920;82;21091;-73
2021/09/26 01:36:52;;;;;;;9.70;4.90;;;;;;;14.59;85.74;100456.30;1729416;82;21746;-75
2021/09/26 01:39:39;;;;;;;8.87;5.13;;;;;;;14.60;85.72;100461.92;1677899;83;21761;-73
2021/09/26 01:42:32;;;;;;;7.30;4.93;;;;;;;14.62;85.55;100461.66;1703843;82;21731;-74
2021/09/26 01:45:18;;;;;;;8.60;4.72;;;;;;;14.61;85.24;100462.20;1744181;82;21640;-74
2021/09/26 01:47:58;;;;;;;7.63;5.30;;;;;;;14.58;85.04;100461.94;1687945;84;21028;-73
2021/09/26 01:50:30;;;;;;;6.07;4.77;;;;;;;14.53;85.02;100465.50;1734273;82;21772;-73
2021/09/26 01:53:09;;;;;;;8.07;4.80;;;;;;;14.49;84.98;100467.13;1714340;82;22019;-73
2021/09/26 01:55:39;;;;;;;6.90;4.43;;;;;;;14.44;84.98;100472.00;1741963;81;22300;-72
2021/09/26 01:58:15;;;;;;;6.40;4.70;;;;;;;14.42;85.01;100478.77;1745867;80;21729;-73
2021/09/26 02:00:44;;;;;;;7.50;4.92;;;;;;;14.39;85.03;100484.70;1735097;82;22105;-73
2021/09/26 02:03:17;;;;;;;8.70;5.03;;;;;;;14.38;85.11;100493.83;1738829;82;21059;-75
2021/09/26 02:05:44;;;;;;;7.83;4.67;;;;;;;14.36;85.09;100495.47;1739367;82;21687;-74
2021/09/26 02:08:19;;;;;;;6.67;4.97;;;;;;;14.37;85.07;100494.92;1715877;82;21731;-73
2021/09/26 02:11:00;;;;;;;;;;;;;;;14.37;85.10;100495.72;1739574;82;21794;-75
2021/09/26 02:13:39;;;;;;;8.47;5.13;;;;;;;14.35;85.15;100501.94;1718022;82;20186;-75
2021/09/26 02:16:07;;;;;;;8.87;5.10;;;;;;;14.31;85.18;100499.02;1715670;82;22198;-73
2021/09/26 02:18:37;;;;;;;7.33;5.00;;;;;;;14.28;85.26;100502.27;1742997;82;22229;-74
2021/09/26 02:21:06;;;;;;;7.17;5.28;;;;;;;14.25;85.50;100493.98;1743426;82;22230;-75
2021/09/26 02:23:36;;;;;;;7.77;4.70;;;;;;;14.19;85.49;100500.47;1706318;83;21039;-73
2021/09/26 02:26:04;;;;;;;7.57;5.10;;;;;;;14.15;85.56;100502.92;1689920;84;21715;-73
2021/09/26 02:28:36;;;;;;;9.07;5.30;;;;;;;14.10;85.66;100504.30;1735596;80;21719;-75
2021/09/26 02:31:09;;;;;;;8.43;5.07;;;;;;;14.05;85.81;100503.02;1651702;86;21787;-73
2021/09/26 02:33:44;;;;;;;7.03;4.87;;;;;;;13.99;85.97;100502.79;1729925;82;21773;-74
2021/09/26 02:36:21;;;;;;;7.07;4.67;;;;;;;13.92;86.16;100503.11;1738605;82;21758;-74
2021/09/26 02:38:55;;;;;;;6.47;4.90;;;;;;;13.88;86.27;100506.07;1740553;82;21777;-75
2021/09/26 02:41:42;;;;;;;6.93;4.57;;;;;;;13.84;86.34;100519.25;1729443;82;21085;-74
2021/09/26 02:44:15;;;;;;;7.30;4.83;;;;;;;13.82;86.29;100514.72;1722110;82;22882;-74
2021/09/26 02:46:57;;;;;;;8.33;4.87;;;;;;;13.81;86.23;100523.84;1733975;82;23064;-75
2021/09/26 02:49:37;;;;;;;7.70;5.10;;;;;;;13.82;86.16;100528.69;1725170;82;21732;-74
2021/09/26 02:52:11;;;;;;;7.80;4.80;;;;;;;13.81;86.14;100529.20;1718673;81;21734;-75
2021/09/26 02:54:42;;;;;;;9.25;4.55;;;;;;;13.81;86.11;100531.09;1741813;81;21770;-75
2021/09/26 02:57:10;;;;;;;10.10;5.03;;;;;;;13.80;86.15;100531.64;1731174;82;21305;-73
2021/09/26 02:59:37;;;;;;;9.50;5.40;;;;;;;13.76;86.12;100533.28;1744243;80;21696;-74
2021/09/26 03:02:08;;;;;;;7.23;4.80;;;;;;;13.77;86.10;100524.14;1735358;82;22214;-74
2021/09/26 03:04:45;;;;;;;11.07;5.17;;;;;;;13.77;86.00;100537.56;1742293;80;21737;-73
2021/09/26 03:07:12;;;;;;;8.47;4.87;;;;;;;13.78;85.96;100537.81;1662073;85;21834;-75
2021/09/26 03:09:40;;;;;;;7.53;4.73;;;;;;;13.78;85.91;100545.87;1739917;80;22246;-74
2021/09/26 03:12:15;;;;;;;7.70;4.20;;;;;;;13.78;85.89;100554.47;1738502;81;21749;-75
2021/09/26 03:14:41;;;;;;;8.17;4.67;;;;;;;13.74;85.85;100558.25;1739826;80;21683;-75
2021/09/26 03:17:08;;;;;;;9.00;4.50;;;;;;;13.72;85.82;100575.19;1744294;82;21687;-74
2021/09/26 03:19:34;;;;;;;6.73;4.73;;;;;;;13.72;85.84;100570.34;1731975;80;22141;-74
2021/09/26 03:22:06;;;;;;;7.63;4.80;;;;;;;13.69;85.84;100561.50;1736379;82;21674;-74
2021/09/26 03:24:41;;;;;;;10.20;5.20;;;;;;;13.65;85.69;100558.56;1677778;85;21820;-75
2021/09/26 03:27:15;;;;;;;9.43;4.80;;;;;;;13.61;85.44;100571.74;1744120;82;22158;-75
2021/09/26 03:29:43;;;;;;;9.83;4.93;;;;;;;13.55;85.47;100561.31;1741683;81;21692;-74
2021/09/26 03:32:26;;;;;;;8.70;5.07;;;;;;;13.55;85.47;100562.65;1737292;80;21826;-76
2021/09/26 03:35:10;;;;;;;7.47;4.87;;;;;;;13.47;85.52;100561.36;1729841;80;21720;-75
2021/09/26 03:37:46;;;;;;;8.00;5.03;;;;;;;13.47;85.52;100561.36;1739287;80;21719;-76
2021/09/26 03:40:19;;;;;;;9.83;4.40;;;;;;;13.41;85.96;100565.14;1726473;81;21720;-77
2021/09/26 03:43:03;;;;;;;;;;;;;;;;;;;;;
2021/09/26 03:45:19;;;;;;;8.00;4.90;;;;;;;13.27;86.28;100560.11;1716375;82;21495;-76
2021/09/26 03:47:51;;;;;;;8.37;4.80;;;;;;;13.23;86.47;100575.13;1675653;83;21787;-76
2021/09/26 03:50:31;;;;;;;11.30;5.40;;;;;;;13.18;86.43;100572.45;1709930;82;21505;-76
2021/09/26 03:53:33;;;;;;;;;;;;;;;;;;;;;
2021/09/26 03:55:46;;;;;;;8.73;4.70;;;;;;;13.08;87.03;100566.58;1715728;82;21428;-75
2021/09/26 03:58:18;;;;;;;8.10;4.60;;;;;;;13.08;87.03;100566.58;1669080;84;21684;-75
2021/09/26 04:00:59;;;;;;;12.40;5.20;;;;;;;13.05;87.01;100576.50;1717935;82;21487;-74
2021/09/26 04:03:39;;;;;;;;;;;;;;;;;;;;;
2021/09/26 04:06:20;;;;;;;;;;;;;;;;;;;;;
2021/09/26 04:08:54;;;;;;;;;;;;;;;;;;;;;
2021/09/26 04:11:31;;;;;;;10.87;5.17;;;;;;;12.93;87.47;100588.05;1727601;80;21505;-76
2021/09/26 04:13:59;;;;;;;9.73;5.13;;;;;;;12.88;87.62;100591.02;1740916;80;21629;-75
2021/09/26 04:16:41;;;;;;;11.40;5.60;;;;;;;12.86;87.84;100590.48;1668821;85;21556;-76
2021/09/26 04:19:09;;;;;;;10.50;5.77;;;;;;;12.83;88.00;100596.41;1740456;82;22027;-75
2021/09/26 04:21:51;;;;;;;12.30;5.43;;;;;;;12.84;88.23;100607.39;1736389;80;21504;-75
2021/09/26 04:24:21;;;;;;;10.00;5.17;;;;;;;12.82;88.89;100596.13;1741458;80;21312;-75
2021/09/26 04:26:53;;;;;;;9.70;5.17;;;;;;;12.82;88.89;100596.13;1674317;84;21412;-76
2021/09/26 04:29:29;;;;;;;9.43;5.07;;;;;;;12.82;88.73;100600.14;1744238;80;21826;-76
2021/09/26 04:32:08;;;;;;;10.10;4.97;;;;;;;12.82;88.73;100594.78;1741623;82;21202;-75
2021/09/26 04:34:51;;;;;;;;;;;;;;;;;;;;;
2021/09/26 04:37:17;;;;;;;8.97;5.17;;;;;;;12.81;88.79;100601.23;1732628;82;21948;-74
2021/09/26 04:39:47;;;;;;;10.50;5.13;;;;;;;12.82;88.54;100600.69;1734957;82;21442;-75
2021/09/26 04:42:30;;;;;;;;;;;;;;;;;;;;;
2021/09/26 04:45:02;;;;;;;8.87;5.40;;;;;;;12.81;88.79;100611.95;1734272;80;21920;-74
2021/09/26 04:47:29;;;;;;;11.53;5.40;;;;;;;12.85;88.66;100616.23;1736978;82;22097;-75
2021/09/26 04:50:03;;;;;;;11.93;5.00;;;;;;;12.85;88.66;100616.23;1713480;81;21417;-75
2021/09/26 04:52:49;;;;;;;;;;;;;;;;;;;;;
2021/09/26 04:55:12;;;;;;;10.03;5.00;;;;;;;12.93;88.69;100615.66;1702802;83;21383;-75
2021/09/26 04:57:44;;;;;;;9.10;5.23;;;;;;;12.94;88.57;100619.97;1729609;80;21519;-75
2021/09/26 05:00:24;;;;;;;11.43;5.27;;;;;;;13.03;88.50;100626.91;1726393;82;22062;-74
2021/09/26 05:02:57;;;;;;;11.20;5.53;;;;;;;13.09;88.39;100623.15;1728595;81;22003;-74
2021/09/26 05:05:38;;;;;;;9.13;4.87;;;;;;;13.23;88.03;100625.55;1729045;82;21819;-75
2021/09/26 05:08:17;;;;;;;9.37;5.03;;;;;;;13.23;88.03;100625.55;1728294;81;21492;-75
2021/09/26 05:10:35;;;;;;;11.57;5.50;;;;;;;13.41;87.74;100628.19;1735473;80;21646;-77
2021/09/26 05:13:21;;;;;;;;;;;;;;;;;;;;;
2021/09/26 05:15:41;;;;;;;11.30;5.37;;;;;;;13.47;87.26;100619.59;1725853;80;21445;-76
2021/09/26 05:18:18;;;;;;;10.50;5.00;;;;;;;13.57;87.02;100616.86;1713558;82;21680;-74
2021/09/26 05:21:04;;;;;;;;;;;;;;;;;;;;;
2021/09/26 05:23:30;;;;;;;10.07;5.10;;;;;;;13.71;86.47;100639.88;1739332;80;21521;-76
2021/09/26 05:26:10;;;;;;;10.67;4.93;;;;;;;13.78;85.47;100638.48;1721444;80;21837;-76
2021/09/26 05:28:44;;;;;;;10.90;5.10;;;;;;;13.88;84.77;100642.20;1736473;82;21771;-75
2021/09/26 05:31:20;;;;;;;;;;;;;;;;;;;;;
2021/09/26 05:33:50;;;;;;;11.60;5.27;;;;;;;13.92;83.95;100645.94;1714075;81;21648;-75
2021/09/26 05:36:19;;;;;;;10.50;4.77;;;;;;;13.91;83.44;100649.17;1713112;82;22313;-74
2021/09/26 05:38:55;;;;;;;12.23;5.27;;;;;;;13.96;83.25;100657.20;1735244;80;21641;-75
2021/09/26 05:41:30;;;;;;;10.17;5.30;;;;;;;13.97;82.86;100668.20;1739982;82;21781;-75
2021/09/26 05:44:01;;;;;;;11.70;5.03;;;;;;;13.99;82.34;100666.59;1739120;80;21663;-74
2021/09/26 05:46:34;;;;;;;12.03;5.13;;;;;;;13.99;82.31;100671.42;1739649;82;21718;-73
2021/09/26 05:49:11;;;;;;;14.90;5.23;;;;;;;14.02;82.12;100666.05;1701915;82;21797;-76
2021/09/26 05:51:38;;;;;;;10.20;4.40;;;;;;;14.05;81.77;100671.67;1740507;80;21680;-76
2021/09/26 05:54:12;;;;;;;12.67;4.60;;;;;;;14.07;81.44;100680.77;1736251;80;21727;-74
2021/09/26 05:56:49;;;;;;;10.83;4.37;;;;;;;14.08;80.63;100666.25;1748007;80;21786;-77
2021/09/26 05:59:20;;;;;;;10.70;4.17;;;;;;;14.07;79.71;100671.37;1741151;80;22121;-78
2021/09/26 06:01:54;;;;;;;11.30;4.43;;;;;;;14.06;78.96;100680.52;1668229;84;21733;-78
2021/09/26 06:04:34;;;;;;;13.20;5.00;;;;;;;14.07;78.69;100684.80;1674749;84;21813;-80
2021/09/26 06:07:02;;;;;;;11.33;4.37;;;;;;;14.08;77.99;100679.69;1661011;84;21802;-81
2021/09/26 06:09:47;;;;;;;10.00;3.93;;;;;;;14.10;77.75;100679.42;1661045;84;21755;-77
2021/09/26 06:12:25;;;;;;;;;;;;;;;;;;;;;
2021/09/26 06:14:46;;;;;;;16.02;4.83;;;;;;;14.18;76.57;100682.86;1674492;84;21718;-78
2021/09/26 06:17:33;;;;;;;11.80;4.87;;;;;;;14.19;76.45;100679.91;1702049;83;21213;-78
2021/09/26 06:20:00;;;;;;;11.30;4.03;;;;;;;14.25;76.33;100684.72;1735031;82;21782;-78
2021/09/26 06:22:33;;;;;;;11.43;4.17;;;;;;;14.36;76.43;100690.83;1720850;82;21724;-76
2021/09/26 06:25:13;;;;;;;8.70;4.17;;;;;;;14.47;75.85;100694.49;1736781;80;21778;-76
2021/09/26 06:28:00;;;;;;;13.87;4.37;;;;;;;14.54;75.54;100692.34;1729160;82;22084;-79
2021/09/26 06:30:35;;;;;;;13.03;4.40;;;;;;;14.64;75.05;100696.84;1722160;82;21704;-81
2021/09/26 06:33:13;;;;;;;14.67;4.93;;;;;;;14.73;74.46;100691.66;1741359;82;21729;-80
2021/09/26 06:35:53;;;;;;;13.40;4.63;;;;;;;14.81;74.08;100693.75;1723460;82;22380;-81
2021/09/26 06:38:24;;;;;;;11.57;4.62;;;;;;;14.84;72.94;100693.71;1679400;85;21088;-80
2021/09/26 06:41:06;;;;;;;10.13;4.10;;;;;;;14.77;72.30;100698.89;1732553;82;21086;-78
2021/09/26 06:43:42;;;;;;;11.30;3.80;;;;;;;14.78;72.23;100706.41;1725418;82;21558;-79
2021/09/26 06:46:12;;;;;;;8.35;3.80;;;;;;;14.78;72.23;100706.41;1743402;82;21027;-79
2021/09/26 06:49:07;;;;;;;12.27;3.80;;;;;;;14.78;71.83;100705.07;1675743;85;21995;-80
2021/09/26 06:51:20;;;;;;;13.43;4.20;;;;;;;14.85;71.79;100702.06;1726846;80;21027;-84
2021/09/26 06:53:59;;;;;;;10.20;4.00;;;;;;;14.85;71.79;100702.06;1677187;85;21158;-82
2021/09/26 06:56:39;;;;;;;11.47;4.03;;;;;;;14.96;72.18;100707.59;1672825;85;20993;-81
2021/09/26 06:59:25;;;;;;;;;;;;;;;;;;;;;
2021/09/26 07:01:52;;;;;;;9.60;3.50;;;;;;;15.13;71.12;100704.48;1742654;81;21102;-79
2021/09/26 07:04:21;;;;;;;12.33;4.27;;;;;;;15.19;70.83;100710.88;1739747;82;20988;-79
2021/09/26 07:06:54;;;;;;;12.93;4.10;;;;;;;15.22;70.64;100711.66;1702132;83;21089;-80
2021/09/26 07:09:44;;;;;;;12.03;4.33;;;;;;;15.28;70.34;100713.77;1721712;82;21071;-79
2021/09/26 07:12:08;;;;;;;10.87;3.77;;;;;;;15.32;70.32;100719.38;1724734;82;21043;-79
2021/09/26 07:14:51;;;;;;;10.87;3.67;;;;;;;15.32;69.72;100709.96;1723581;82;21149;-80
2021/09/26 07:17:31;;;;;;;;;;;;;;;;;;;;;
2021/09/26 07:20:01;;;;;;;12.05;3.80;;;;;;;15.28;68.61;100707.04;1724135;82;21102;-78
2021/09/26 07:22:38;;;;;;;12.30;3.90;;;;;;;15.30;68.91;100715.64;1706580;83;22127;-78
2021/09/26 07:25:16;;;;;;;9.77;3.73;;;;;;;15.40;69.14;100718.74;1728828;82;21063;-78
2021/09/26 07:27:56;;;;;;;10.17;3.53;;;;;;;15.47;68.65;100717.89;1737415;81;21083;-76
2021/09/26 07:30:26;;;;;;;13.60;4.00;;;;;;;15.51;68.16;100718.91;1736317;80;21009;-75
2021/09/26 07:32:59;;;;;;;14.13;4.33;;;;;;;15.58;67.70;100721.27;1731245;82;21503;-75
2021/09/26 07:35:48;;;;;;;;;;;;;;;;;;;;;
2021/09/26 07:38:08;;;;;;;9.27;3.83;;;;;;;15.79;67.92;100734.77;1722472;82;21051;-78
2021/09/26 07:40:36;;;;;;;11.87;4.60;;;;;;;15.89;67.53;100727.12;1731258;82;21147;-73
2021/09/26 07:43:14;;;;;;;;;;;;;;;;;;;;;
2021/09/26 07:45:52;;;;;;;;;;;;;;;;;;;;;
2021/09/26 07:48:24;;;;;;;11.53;3.43;;;;;;;16.00;65.16;100726.47;1736653;81;21115;-80
2021/09/26 07:50:58;;;;;;;12.87;3.63;;;;;;;16.00;63.99;100747.47;1737185;82;20996;-78
2021/09/26 07:53:26;;;;;;;9.57;3.53;;;;;;;16.06;63.67;100737.44;1740783;80;21024;-79
2021/09/26 07:56:05;;;;;;;10.90;3.17;;;;;;;16.16;63.15;100734.61;1722899;80;21081;-81
2021/09/26 07:58:43;;;;;;;13.07;3.43;;;;;;;16.28;62.14;100736.86;1734972;82;21056;-78
2021/09/26 08:01:20;;;;;;;12.67;3.97;;;;;;;16.38;61.95;100746.95;1738441;82;21083;-77
2021/09/26 08:03:50;;;;;;;11.97;3.50;;;;;;;16.49;60.51;100750.33;1741758;82;21499;-78
2021/09/26 08:06:39;;;;;;;10.87;3.40;;;;;;;16.55;60.23;100761.81;1705285;82;21060;-79
2021/09/26 08:09:00;;;;;;;10.47;3.70;;;;;;;16.61;60.22;100757.41;1702809;82;21011;-78
2021/09/26 08:11:30;;;;;;;11.00;3.90;;;;;;;16.69;59.61;100743.03;1684943;83;21063;-78
2021/09/26 08:14:12;;;;;;;9.77;3.30;;;;;;;16.77;59.34;100740.48;1726036;80;21550;-76
2021/09/26 08:16:56;;;;;;;;;;;;;;;;;;;;;
2021/09/26 08:19:35;;;;;;;12.03;3.43;;;;;;;16.85;59.11;100742.53;1729746;80;21041;-79
2021/09/26 08:21:56;;;;;;;10.77;3.33;;;;;;;16.86;58.58;100751.42;1717104;80;21111;-76
2021/09/26 08:24:32;;;;;;;11.10;3.60;;;;;;;16.80;58.41;100753.94;1721374;82;21530;-78
2021/09/26 08:27:08;;;;;;;10.33;3.30;;;;;;;16.81;57.30;100756.88;1736785;80;21043;-76
2021/09/26 08:29:42;;;;;;;10.07;3.57;;;;;;;16.83;56.85;100753.34;1731531;80;21044;-77
2021/09/26 08:32:15;;;;;;;11.23;3.37;;;;;;;16.93;56.65;100742.95;1741237;80;21215;-77
2021/09/26 08:34:52;;;;;;;11.93;2.87;;;;;;;17.05;56.24;100750.84;1737228;80;21538;-76
2021/09/26 08:37:32;;;;;;;10.77;3.20;;;;;;;17.17;55.83;100749.00;1734101;81;21036;-77
2021/09/26 08:40:05;;;;;;;11.20;3.03;;;;;;;17.24;55.18;100758.06;1716148;82;21055;-76
2021/09/26 08:42:37;;;;;;;10.63;3.07;;;;;;;17.28;55.42;100752.34;1721211;82;21355;-76
2021/09/26 08:45:10;;;;;;;13.00;4.10;;;;;;;17.27;55.92;100754.22;1725943;80;22003;-76
2021/09/26 08:47:42;;;;;;;10.63;3.43;;;;;;;17.29;56.39;100761.48;1726200;82;21514;-77
2021/09/26 08:50:19;;;;;;;10.17;3.57;;;;;;;17.34;55.17;100749.27;1717770;80;21094;-79
2021/09/26 08:52:53;;;;;;;7.70;2.73;;;;;;;17.37;54.77;100749.19;1731793;81;21573;-78
2021/09/26 08:55:30;;;;;;;14.03;3.40;;;;;;;17.43;55.17;100743.95;1713258;82;21000;-76
2021/09/26 08:58:06;;;;;;;10.63;3.13;;;;;;;17.53;54.85;100745.11;1674440;83;21516;-75
2021/09/26 09:00:42;;;;;;;8.40;3.27;;;;;;;17.68;55.18;100749.44;1725348;80;21079;-76
2021/09/26 09:03:18;;;;;;;10.03;3.03;;;;;;;17.88;54.05;100752.88;1735417;80;21522;-78
2021/09/26 09:05:53;;;;;;;12.67;3.43;;;;;;;17.95;52.92;100758.67;1736632;80;21570;-78
2021/09/26 09:08:36;;;;;;;9.43;2.77;;;;;;;17.94;51.36;100754.38;1735013;80;21039;-77
2021/09/26 09:11:10;;;;;;;9.00;2.90;;;;;;;17.90;51.73;100748.78;1704334;82;21739;-77
2021/09/26 09:13:55;;;;;;;11.37;3.40;;;;;;;17.92;51.68;100761.97;1738104;80;21047;-78
2021/09/26 09:16:25;;;;;;;12.07;3.40;;;;;;;17.92;51.11;100749.26;1737227;80;21438;-79
2021/09/26 09:18:56;;;;;;;10.70;2.90;;;;;;;17.87;49.89;100749.91;1727588;81;21063;-78
2021/09/26 09:21:30;;;;;;;9.00;2.90;;;;;;;17.82;50.21;100738.66;1726481;82;21574;-75
2021/09/26 09:24:27;;;;;;;10.77;3.20;;;;;;;17.82;49.70;100754.87;1733623;82;21654;-74
2021/09/26 09:26:59;;;;;;;6.93;2.43;;;;;;;17.81;49.86;100745.17;1729184;80;21022;-75
2021/09/26 09:29:32;;;;;;;12.13;3.20;;;;;;;17.89;49.39;100737.70;1714102;82;21102;-75
2021/09/26 09:32:23;;;;;;;9.40;3.10;;;;;;;17.80;49.48;100738.14;1702831;83;21368;-77
2021/09/26 09:34:53;;;;;;;10.27;2.70;;;;;;;17.78;50.21;100747.12;1648114;85;21563;-77
2021/09/26 09:37:29;;;;;;;9.25;3.30;;;;;;;17.72;50.29;100765.29;1722219;82;21191;-77
2021/09/26 09:40:22;;;;;;;11.30;3.20;;;;;;;17.64;50.33;100749.00;1736002;82;21051;-76
2021/09/26 09:42:59;;;;;;;10.50;3.10;;;;;;;17.61;50.42;100752.30;1739186;81;21523;-75
2021/09/26 09:45:38;;;;;;;11.27;3.40;;;;;;;17.72;51.23;100750.98;1740418;80;20996;-75
2021/09/26 09:48:31;;;;;;;;;;;;;;;;;;;;;
2021/09/26 09:51:13;;;;;;;11.90;3.30;;;;;;;18.00;49.66;100739.66;1706299;81;21073;-74
2021/09/26 09:53:50;;;;;;;12.27;2.83;;;;;;;18.02;49.41;100740.14;1734504;80;21063;-75
2021/09/26 09:56:26;;;;;;;9.47;2.90;;;;;;;18.00;49.80;100753.17;1735751;80;21448;-78
2021/09/26 09:58:59;;;;;;;9.43;2.83;;;;;;;17.98;49.30;100756.72;1720336;81;20997;-75
2021/09/26 10:01:32;;;;;;;8.60;2.80;;;;;;;17.98;48.81;100752.66;1734170;82;21072;-76
2021/09/26 10:04:12;;;;;;;8.90;2.57;;;;;;;17.94;48.71;100748.97;1746024;80;21070;-76
2021/09/26 10:06:54;;;;;;;8.63;2.67;;;;;;;18.00;49.40;100752.63;1740504;80;21085;-75
2021/09/26 10:09:35;;;;;;;8.70;2.63;;;;;;;18.07;49.30;100755.47;1740843;80;21047;-75
2021/09/26 10:12:09;;;;;;;9.27;2.83;;;;;;;18.04;48.22;100763.07;1722258;80;20984;-75
2021/09/26 10:14:50;;;;;;;;;;;;;;;;;;;;;
2021/09/26 10:17:12;;;;;;;8.47;2.37;;;;;;;17.74;47.81;100763.66;1732292;80;21130;-75
2021/09/26 10:19:50;;;;;;;10.20;2.73;;;;;;;17.66;48.28;100765.69;1715467;81;21056;-73
2021/09/26 10:22:18;;;;;;;8.13;2.90;;;;;;;17.72;49.08;100761.80;1718408;80;21062;-76
2021/09/26 10:25:01;;;;;;;9.50;2.83;;;;;;;17.90;49.72;100755.53;1733970;80;21401;-74
2021/09/26 10:27:41;;;;;;;6.87;2.30;;;;;;;18.08;48.43;100771.38;1730584;80;21070;-74
2021/09/26 10:30:10;;;;;;;8.53;2.87;;;;;;;18.13;47.83;100755.06;1734239;82;21313;-76
2021/09/26 10:32:54;;;;;;;8.70;2.80;;;;;;;18.14;47.38;100769.37;1742015;80;21096;-78
2021/09/26 10:35:22;;;;;;;11.40;3.13;;;;;;;18.15;47.47;100775.81;1717320;82;20989;-77
2021/09/26 10:38:00;;;;;;;9.53;2.87;;;;;;;18.23;47.81;100764.86;1729839;80;21052;-78
2021/09/26 10:40:40;;;;;;;11.25;3.15;;;;;;;18.36;47.90;100765.39;1744097;80;21039;-76
2021/09/26 10:43:29;;;;;;;8.73;2.80;;;;;;;18.48;47.35;100758.87;1739006;80;21188;-76
2021/09/26 10:46:23;;;;;;;9.53;3.13;;;;;;;18.60;46.89;100754.84;1679359;83;21013;-76
2021/09/26 10:49:15;;;;;;;6.83;2.30;;;;;;;18.71;46.96;100756.20;1735082;80;21074;-76
2021/09/26 10:52:02;;;;;;;6.73;2.40;;;;;;;18.80;45.63;100750.34;1706001;81;21483;-76
2021/09/26 10:54:46;;;;;;;;;;;;;;;;;;;;;
2021/09/26 10:57:19;;;;;;;7.90;2.57;;;;;;;18.76;45.79;100752.06;1738285;80;20999;-74
2021/09/26 10:59:54;;;;;;;8.70;2.50;;;;;;;18.73;46.22;100758.09;1706848;82;21018;-75
2021/09/26 11:02:35;;;;;;;9.33;3.90;;;;;;;18.66;46.36;100762.54;1727914;80;21494;-76
2021/09/26 11:05:07;;;;;;;8.87;2.80;;;;;;;18.66;46.57;100754.42;1672183;84;21075;-74
2021/09/26 11:07:47;;;;;;;7.37;2.70;;;;;;;18.72;46.23;100758.64;1729591;81;20953;-74
2021/09/26 11:10:46;;;;;;;7.87;3.00;;;;;;;18.74;45.80;100745.59;1667936;83;21290;-74
2021/09/26 11:13:38;;;;;;;;;;;;;;;;;;;;;
2021/09/26 11:16:17;;;;;;;9.53;2.57;;;;;;;18.76;46.38;100738.53;1673460;83;21147;-76
2021/09/26 11:19:07;;;;;;;;;;;;;;;;;;;;;
2021/09/26 11:21:49;;;;;;;9.90;2.93;;;;;;;18.51;46.39;100741.24;1738678;82;21498;-74
2021/09/26 11:24:30;;;;;;;9.33;2.60;;;;;;;18.39;47.18;100749.88;1700025;82;21012;-75
2021/09/26 11:27:31;;;;;;;8.53;2.33;;;;;;;18.30;47.20;100753.08;1712245;83;21106;-75
2021/09/26 11:30:30;;;;;;;;;;;;;;;;;;;;;
2021/09/26 11:32:59;;;;;;;9.53;2.60;;;;;;;18.04;46.96;100749.55;1735809;81;21024;-74
2021/09/26 11:35:34;;;;;;;10.60;3.03;;;;;;;17.97;47.40;100755.92;1760778;80;21134;-75
2021/09/26 11:38:07;;;;;;;9.63;3.17;;;;;;;17.94;47.57;100756.53;1748384;80;21093;-75
2021/09/26 11:41:09;;;;;;;7.97;2.70;;;;;;;17.91;47.39;100753.62;1704265;83;21043;-75
2021/09/26 11:43:50;;;;;;;6.77;2.20;;;;;;;17.93;47.37;100754.94;1737102;80;21822;-74
2021/09/26 11:46:31;;;;;;;9.20;2.73;;;;;;;18.01;46.75;100756.91;1726734;80;21408;-74
2021/09/26 11:49:16;;;;;;;8.30;2.60;;;;;;;18.12;46.70;100749.94;1734135;81;21079;-75
2021/09/26 11:51:54;;;;;;;;;;;;;;;;;;;;;
2021/09/26 11:54:29;;;;;;;10.60;2.40;;;;;;;18.33;45.90;100743.53;1737108;80;21095;-74
2021/09/26 11:57:01;;;;;;;6.27;2.00;;;;;;;18.43;45.46;100736.02;1738809;82;20969;-75
2021/09/26 11:59:42;;;;;;;6.67;2.30;;;;;;;18.52;45.18;100748.24;1675925;83;21111;-75
2021/09/26 12:02:13;;;;;;;6.50;2.17;;;;;;;18.54;44.72;100743.34;1706754;83;21093;-75
2021/09/26 12:04:50;;;;;;;7.53;2.50;;;;;;;18.57;44.60;100745.99;1720084;80;21515;-74
2021/09/26 12:07:34;;;;;;;7.50;2.40;;;;;;;18.61;44.73;100741.00;1669511;85;21634;-75
2021/09/26 12:09:57;;;;;;;8.17;2.20;;;;;;;18.67;44.96;100751.95;1725137;80;21467;-75
2021/09/26 12:12:44;;;;;;;;;;;;;;;;;;;;;
2021/09/26 12:15:22;;;;;;;;;;;;;;;;;;;;;
2021/09/26 12:17:50;;;;;;;8.03;2.30;;;;;;;18.64;44.34;100750.42;1729205;82;20928;-75
2021/09/26 12:20:40;;;;;;;7.33;2.40;;;;;;;18.68;44.44;100737.31;1713870;81;21059;-74
2021/09/26 12:23:01;;;;;;;9.07;2.23;;;;;;;18.72;44.22;100734.82;1718397;82;20952;-77
2021/09/26 12:25:43;;;;;;;6.87;2.17;;;;;;;18.74;43.31;100744.80;1734614;80;21282;-78
2021/09/26 12:28:20;;;;;;;;;;;;;;;;;;;;;
2021/09/26 12:31:05;;;;;;;;;;;;;;;;;;;;;
2021/09/26 12:33:54;;;;;;;5.57;1.93;;;;;;;18.63;42.19;100733.39;1659057;84;21080;-74
2021/09/26 12:36:28;;;;;;;;;;;;;;;;;;;;;
2021/09/26 12:39:05;;;;;;;7.63;2.10;;;;;;;18.62;43.23;100737.73;1739483;81;21039;-76
2021/09/26 12:41:36;;;;;;;4.70;1.80;;;;;;;18.62;42.83;100747.20;1740311;80;20940;-75
2021/09/26 12:44:12;;;;;;;4.07;1.40;;;;;;;18.61;42.75;100741.00;1742937;82;21151;-75
2021/09/26 12:46:46;;;;;;;4.97;1.77;;;;;;;18.63;41.64;100733.95;1697645;82;20989;-75